createdAt,value
2023-04-03T00:00:19.592Z,100218.88
2023-04-03T00:05:21.370Z,100225.06
2023-04-03T00:10:23.083Z,100226.50
2023-04-03T00:15:24.793Z,100228.00
2023-04-03T00:20:27.188Z,100234.72
2023-04-03T00:25:28.900Z,100238.31
2023-04-03T00:30:30.834Z,100240.78
2023-04-03T00:35:32.877Z,100235.78
2023-04-03T00:40:40.128Z,100234.94
2023-04-03T00:45:44.339Z,100241.19
2023-04-03T00:50:47.311Z,100235.41
2023-04-03T00:55:51.000Z,100240.50
2023-04-03T01:00:59.068Z,100245.59
2023-04-03T01:06:01.260Z,100251.50
2023-04-03T01:11:03.255Z,100251.63
2023-04-03T01:16:06.983Z,100238.69
2023-04-03T01:21:20.627Z,100243.84
2023-04-03T01:26:22.373Z,100243.16
2023-04-03T01:31:35.017Z,100249.00
2023-04-03T01:36:37.073Z,100240.66
2023-04-03T01:41:38.958Z,100256.38
2023-04-03T01:46:49.391Z,100262.13
2023-04-03T01:51:51.114Z,100263.53
2023-04-03T01:56:52.863Z,100267.84
2023-04-03T02:01:55.667Z,100264.97
2023-04-03T02:06:57.282Z,100255.19
2023-04-03T02:11:59.007Z,100257.78
2023-04-03T02:17:05.932Z,100264.44
2023-04-03T02:22:07.604Z,100265.19
2023-04-03T02:27:09.477Z,100264.31
2023-04-03T02:32:11.332Z,100266.47
2023-04-03T02:37:13.629Z,100258.84
2023-04-03T02:42:15.720Z,100273.81
2023-04-03T02:47:17.553Z,100287.03
2023-04-03T02:52:19.675Z,100278.50
2023-04-03T02:57:22.683Z,100284.41
2023-04-03T03:02:24.502Z,100285.31
2023-04-03T03:07:26.963Z,100291.53
2023-04-03T03:12:28.654Z,100291.94
2023-04-03T03:17:31.494Z,100298.38
2023-04-03T03:22:33.447Z,100296.41
2023-04-03T03:27:35.655Z,100291.19
2023-04-03T03:32:37.743Z,100297.47
2023-04-03T03:37:39.731Z,100308.97
2023-04-03T03:42:41.970Z,100311.56
2023-04-03T03:47:43.770Z,100311.34
2023-04-03T03:52:45.832Z,100308.84
2023-04-03T03:57:47.526Z,100310.19
2023-04-03T04:02:49.537Z,100296.38
2023-04-03T04:07:54.668Z,100303.13
2023-04-03T04:12:58.606Z,100298.25
2023-04-03T04:18:03.260Z,100303.81
2023-04-03T04:23:06.083Z,100300.66
2023-04-03T04:28:08.267Z,100303.91
2023-04-03T04:33:10.999Z,100315.84
2023-04-03T04:38:13.573Z,100318.19
2023-04-03T04:43:15.746Z,100326.34
2023-04-03T04:48:19.904Z,100335.41
2023-04-03T04:53:22.496Z,100330.84
2023-04-03T04:58:24.779Z,100329.75
2023-04-03T05:03:26.833Z,100329.75
2023-04-03T05:08:28.912Z,100335.34
2023-04-03T05:13:31.243Z,100349.03
2023-04-03T05:18:33.347Z,100346.28
2023-04-03T05:23:40.517Z,100351.28
2023-04-03T05:28:42.689Z,100351.16
2023-04-03T05:33:44.714Z,100345.50
2023-04-03T05:38:51.284Z,100351.41
2023-04-03T05:43:54.136Z,100353.09
2023-04-03T05:48:57.608Z,100354.69
2023-04-03T05:54:27.901Z,100355.69
2023-04-03T05:59:37.313Z,100361.25
2023-04-03T06:04:39.443Z,100360.84
2023-04-03T06:09:41.603Z,100363.00
2023-04-03T06:14:43.402Z,100378.56
2023-04-03T06:19:45.921Z,100366.13
2023-04-03T06:24:47.879Z,100365.72
2023-04-03T06:29:50.260Z,100380.22
2023-04-03T06:34:52.269Z,100377.91
2023-04-03T06:39:54.133Z,100383.56
2023-04-03T06:44:55.779Z,100375.22
2023-04-03T06:49:57.463Z,100379.81
2023-04-03T06:55:00.498Z,100398.59
2023-04-03T07:00:02.166Z,100401.69
2023-04-03T07:05:04.187Z,100404.94
2023-04-03T07:10:07.350Z,100404.84
2023-04-03T07:15:09.502Z,100419.38
2023-04-03T07:20:11.977Z,100433.75
2023-04-03T07:25:13.747Z,100425.75
2023-04-03T07:30:15.744Z,100422.81
2023-04-03T07:35:18.339Z,100434.53
2023-04-03T07:40:20.845Z,100440.22
2023-04-03T07:45:23.751Z,100427.72
2023-04-03T07:50:25.845Z,100432.22
2023-04-03T07:55:27.546Z,100443.66
2023-04-03T08:00:29.240Z,100446.84
2023-04-03T08:05:30.850Z,100443.00
2023-04-03T08:10:33.117Z,100444.56
2023-04-03T08:15:35.564Z,100442.22
2023-04-03T08:20:40.909Z,100435.03
2023-04-03T08:25:43.033Z,100448.25
2023-04-03T08:30:45.562Z,100455.47
2023-04-03T08:35:47.201Z,100463.34
2023-04-03T08:41:00.301Z,100457.91
2023-04-03T08:46:07.320Z,100462.19
2023-04-03T08:51:17.469Z,100444.50
2023-04-03T08:56:20.056Z,100443.00
2023-04-03T09:01:31.022Z,100440.38
2023-04-03T09:06:34.079Z,100454.56
2023-04-03T09:11:42.455Z,100439.69
2023-04-03T09:16:53.455Z,100448.84
2023-04-03T09:21:58.384Z,100447.47
2023-04-03T09:27:08.998Z,100452.31
2023-04-03T09:32:35.004Z,100451.28
2023-04-03T09:37:39.961Z,100472.25
2023-04-03T09:42:46.237Z,100462.38
2023-04-03T09:48:08.328Z,100465.75
2023-04-03T09:53:31.776Z,100470.63
2023-04-03T09:58:49.648Z,100485.06
2023-04-03T10:04:11.810Z,100478.25
2023-04-03T10:09:34.125Z,100482.50
2023-04-03T10:14:38.730Z,100487.44
2023-04-03T10:19:49.308Z,100490.19
2023-04-03T10:25:01.319Z,100485.22
2023-04-03T10:30:10.466Z,100491.25
2023-04-03T10:35:33.656Z,100483.78
2023-04-03T10:40:49.816Z,100484.63
2023-04-03T10:46:00.566Z,100492.59
2023-04-03T10:51:21.902Z,100465.97
2023-04-03T10:56:36.320Z,100492.75
2023-04-03T11:01:43.334Z,100480.13
2023-04-03T11:06:52.239Z,100508.50
2023-04-03T11:12:16.868Z,100502.72
2023-04-03T11:17:24.396Z,100480.34
2023-04-03T11:22:38.492Z,100475.53
2023-04-03T11:27:52.787Z,100462.78
2023-04-03T11:33:27.887Z,100474.03
2023-04-03T11:38:44.373Z,100468.00
2023-04-03T11:43:58.430Z,100490.28
2023-04-03T11:49:00.308Z,100463.19
2023-04-03T11:54:44.931Z,100477.84
2023-04-03T11:59:47.157Z,100468.91
2023-04-03T12:05:29.060Z,100462.69
2023-04-03T12:10:32.524Z,100485.19
2023-04-03T12:15:37.811Z,100470.44
2023-04-03T12:20:59.610Z,100455.75
2023-04-03T12:26:20.638Z,100463.72
2023-04-03T12:31:27.537Z,100454.84
2023-04-03T12:36:54.174Z,100462.53
2023-04-03T12:42:42.606Z,100448.44
2023-04-03T12:47:45.657Z,100452.75
2023-04-03T12:52:53.669Z,100439.25
2023-04-03T12:57:55.269Z,100463.44
2023-04-03T13:02:57.734Z,100460.69
2023-04-03T13:08:06.620Z,100468.81
2023-04-03T13:13:09.480Z,100447.97
2023-04-03T13:18:33.707Z,100438.22
2023-04-03T13:23:39.730Z,100452.50
2023-04-03T13:28:42.322Z,100451.97
2023-04-03T13:33:56.986Z,100448.84
2023-04-03T13:39:24.318Z,100441.66
2023-04-03T13:44:36.369Z,100441.94
2023-04-03T13:49:44.551Z,100442.59
2023-04-03T13:54:55.379Z,100435.34
2023-04-03T13:59:57.010Z,100450.47
2023-04-03T14:05:02.822Z,100437.84
2023-04-03T14:10:05.035Z,100425.47
2023-04-03T14:15:18.943Z,100435.47
2023-04-03T14:20:25.999Z,100420.81
2023-04-03T14:25:27.809Z,100403.13
2023-04-03T14:30:34.265Z,100416.59
2023-04-03T14:35:36.174Z,100412.50
2023-04-03T14:40:38.031Z,100432.50
2023-04-03T14:45:40.203Z,100437.09
2023-04-03T14:50:49.068Z,100428.88
2023-04-03T14:55:56.485Z,100426.56
2023-04-03T15:00:58.105Z,100424.88
2023-04-03T15:06:00.308Z,100421.63
2023-04-03T15:11:02.280Z,100412.53
2023-04-03T15:16:05.134Z,100429.81
2023-04-03T15:21:07.019Z,100419.75
2023-04-03T15:26:08.836Z,100400.78
2023-04-03T15:31:11.014Z,100406.94
2023-04-03T15:41:18.739Z,100439.34
2023-04-03T15:46:20.607Z,100422.25
2023-04-03T15:51:22.353Z,100422.63
2023-04-03T15:56:23.992Z,100445.56
2023-04-03T16:01:25.746Z,100443.09
2023-04-03T16:06:30.349Z,100445.38
2023-04-03T16:11:32.399Z,100435.38
2023-04-03T16:16:34.896Z,100435.38
2023-04-03T16:21:36.590Z,100460.53
2023-04-03T16:26:38.236Z,100450.84
2023-04-03T16:31:40.015Z,100457.91
2023-04-03T16:36:41.741Z,100458.03
2023-04-03T16:41:43.404Z,100453.84
2023-04-03T16:46:46.241Z,100467.91
2023-04-03T16:51:49.796Z,100472.13
2023-04-03T16:56:51.573Z,100488.84
2023-04-03T17:01:53.368Z,100476.72
2023-04-03T17:06:55.744Z,100475.38
2023-04-03T17:11:57.540Z,100488.81
2023-04-03T17:16:59.577Z,100494.19
2023-04-03T17:22:01.592Z,100495.44
2023-04-03T17:27:03.888Z,100481.47
2023-04-03T17:32:05.664Z,100493.28
2023-04-03T17:37:07.501Z,100500.16
2023-04-03T17:42:09.347Z,100506.91
2023-04-03T17:47:11.016Z,100503.34
2023-04-03T17:52:12.656Z,100514.94
2023-04-03T17:57:14.311Z,100526.03
2023-04-03T18:02:16.136Z,100524.00
2023-04-03T18:07:17.863Z,100531.00
2023-04-03T18:12:19.738Z,100528.06
2023-04-03T18:17:22.491Z,100538.66
2023-04-03T18:22:25.353Z,100535.25
2023-04-03T18:27:27.627Z,100544.75
2023-04-03T18:32:29.254Z,100555.66
2023-04-03T18:37:31.811Z,100561.69
2023-04-03T18:42:33.487Z,100551.47
2023-04-03T18:47:36.897Z,100558.13
2023-04-03T18:52:38.589Z,100565.22
2023-04-03T18:57:40.371Z,100574.16
2023-04-03T19:02:42.276Z,100588.16
2023-04-03T19:07:44.652Z,100598.56
2023-04-03T19:12:47.918Z,100594.81
2023-04-03T19:17:49.571Z,100598.00
2023-04-03T19:22:51.773Z,100601.00
2023-04-03T19:27:54.061Z,100616.06
2023-04-03T19:32:55.817Z,100623.28
2023-04-03T19:37:57.858Z,100628.63
2023-04-03T19:42:59.711Z,100646.09
2023-04-03T19:48:01.513Z,100639.63
2023-04-03T19:53:39.131Z,100635.88
2023-04-03T19:58:41.264Z,100647.34
2023-04-03T20:03:42.950Z,100652.25
2023-04-03T20:08:45.104Z,100650.53
2023-04-03T20:13:51.541Z,100662.34
2023-04-03T20:18:55.603Z,100662.09
2023-04-03T20:23:57.462Z,100669.06
2023-04-03T20:29:01.443Z,100672.38
2023-04-03T20:34:03.656Z,100671.78
2023-04-03T20:39:05.610Z,100665.38
2023-04-03T20:44:07.437Z,100668.28
2023-04-03T20:49:09.044Z,100664.16
2023-04-03T20:54:11.534Z,100668.59
2023-04-03T20:59:14.094Z,100660.94
2023-04-03T21:04:30.438Z,100644.63
2023-04-03T21:10:09.921Z,100648.41
2023-04-03T21:15:55.302Z,100645.31
2023-04-03T21:20:57.265Z,100633.44
2023-04-03T21:26:02.096Z,100631.28
2023-04-03T21:31:03.724Z,100617.44
2023-04-03T21:36:05.737Z,100615.63
2023-04-03T21:41:07.296Z,100608.63
2023-04-03T21:46:09.434Z,100596.66
2023-04-03T21:51:11.723Z,100598.59
2023-04-03T21:56:13.562Z,100594.69
2023-04-03T22:01:16.353Z,100597.16
2023-04-03T22:06:18.051Z,100594.22
2023-04-03T22:11:22.978Z,100587.31
2023-04-03T22:16:24.737Z,100593.81
2023-04-03T22:21:26.659Z,100592.69
2023-04-03T22:26:28.539Z,100589.06
2023-04-03T22:31:30.330Z,100580.00
2023-04-03T22:36:32.000Z,100568.81
2023-04-03T22:41:33.624Z,100573.69
2023-04-03T22:46:35.639Z,100557.88
2023-04-03T22:51:37.254Z,100557.50
2023-04-03T22:56:38.938Z,100565.03
2023-04-03T23:01:40.936Z,100559.56
2023-04-03T23:06:42.698Z,100546.56
2023-04-03T23:11:44.348Z,100552.38
2023-04-03T23:16:46.788Z,100554.72
2023-04-03T23:21:48.402Z,100554.91
2023-04-03T23:26:50.251Z,100545.84
2023-04-03T23:31:52.209Z,100534.88
2023-04-03T23:36:54.064Z,100538.91
2023-04-03T23:41:55.693Z,100530.94
2023-04-03T23:46:59.018Z,100543.94
2023-04-03T23:52:00.764Z,100546.41
2023-04-03T23:57:02.593Z,100539.06
